TOURFACTS.DK  
Stats and Facts from Tour de France.

Tour de France 2019 starts in 348 days
  Riders   Stages   Teams   Summits   Yearly  


 
Search by year

After 2018 - Stage 14:
 15000 starters.
  5163 different riders.
  639 teams.
  2246 stages.
  456 restdays.
  441957.60 km.
  5678 abandonnees.


Top 3
GC
Christopher Froome86:20:55
Rigoberto Urán86:21:49
Romain Bardet86:23:15
Climb
Warren Barguil169 pt.
Primoz Roglic80 pt.
Thomas De Gendt64 pt.
Sprint
Michael Matthews359 pt.
André Greipel234 pt.
Edvald Boasson Hagen220 pt.
Youth
Simon Yates86:27:09
Louis Meintjes86:29:15
Emanuel Buchmann86:54:16
Facts from Tour de France 1994
  |   Stages.  |   Stage winners.  |   Days in yellow  |   Average speed.  |   Route.  |   Teams.  |   All riders.  |   Rookies.  |  

  |   Withdrawls.  |   GC.  |   Polka  |   Green  |   White  |   Summits. (In tour)  |   Miscellaneous.  |  

Stage 3 on July 5th. 1994
         Owning:    Johan Museeuw    
Pick a stage:  Pro 1 2 3 4 5 6 7 8 9 10 11 12 13 14 15 16 17 18 19 20 21
From: Calais    To: EurotunnelDist:66.40 km.

Average speed for all riders in stage:  48,212 km./hr.
    Place:Name:Team:Time:Km/h:
BELJohan MuseeuwITAGB-MG Maglificio01:20:31  +  00:00:00=49,480 
BELCarlo BomansITAGB-MG Maglificio01:20:31  +  00:00:00=49,480 
ITADavide CassaniITAGB-MG Maglificio01:20:31  +  00:00:00=49,480 
4 ITAAlberto ElliITAGB-MG Maglificio01:20:31  +  00:00:00=49,480 
5 SUIRolf JärmannITAGB-MG Maglificio01:20:31  +  00:00:00=49,480 
6 BELWilfried PeetersITAGB-MG Maglificio01:20:31  +  00:00:00=49,480 
7 DENRolf SřrensenITAGB-MG Maglificio01:20:31  +  00:00:00=49,480 
8 ITAFlavio VanzellaITAGB-MG Maglificio01:20:31  +  00:00:00=49,480 
9 ITAFranco VonaITAGB-MG Maglificio01:20:31  +  00:00:00=49,480 
10 USALance ArmstrongUSAMotorola01:20:37  +  00:00:06=49,419 
11 ESPRaúl AlcaláUSAMotorola01:20:37  +  00:00:06=49,419 
12 ENGPhil AndersonUSAMotorola01:20:37  +  00:00:06=49,419 
13 USAFrankie AndreuUSAMotorola01:20:37  +  00:00:06=49,419 
14 CANSteve BauerUSAMotorola01:20:37  +  00:00:06=49,419 
15 BELMichel DerniesUSAMotorola01:20:37  +  00:00:06=49,419 
16 COLAlvaro MejiaUSAMotorola01:20:37  +  00:00:06=49,419 
17 NZLStephen SwartUSAMotorola01:20:37  +  00:00:06=49,419 
18 ENGSean YatesUSAMotorola01:20:37  +  00:00:06=49,419 
19 ESPMiguel IndurainESPBanesto01:20:49  +  00:00:18=49,297 
20 ESPMarino MonjeESPBanesto01:20:49  +  00:00:18=49,297 
21 ESPVicente AparicioESPBanesto01:20:49  +  00:00:18=49,297 
22 FRAJean-François BernardESPBanesto01:20:49  +  00:00:18=49,297 
23 ESPRamon GonzalezESPBanesto01:20:49  +  00:00:18=49,297 
24 ESPMelchor MauriESPBanesto01:20:49  +  00:00:18=49,297 
25 NEDErwin NijboerESPBanesto01:20:49  +  00:00:18=49,297 
26 FRAGérard RuéESPBanesto01:20:49  +  00:00:18=49,297 
27 ESPJosé UriarteESPBanesto01:20:49  +  00:00:18=49,297 
28 FRAArmand De Las CuevasFRACastorama01:20:58  +  00:00:27=49,205 
29 FRAThomas DavyFRACastorama01:20:58  +  00:00:27=49,205 
30 FRALaurent DesbiensFRACastorama01:20:58  +  00:00:27=49,205 
31 FRAJacky DurandFRACastorama01:20:58  +  00:00:27=49,205 
32 FRALaurent MadouasFRACastorama01:20:58  +  00:00:27=49,205 
33 FRAEmmanuel MagnienFRACastorama01:20:58  +  00:00:27=49,205 
34 FRAThierry MarieFRACastorama01:20:58  +  00:00:27=49,205 
35 FRAFrançois SimonFRACastorama01:20:58  +  00:00:27=49,205 
36 FRABruno ThiboutFRACastorama01:20:58  +  00:00:27=49,205 
37 DENTony RomingerBELMapei-Clas01:21:13  +  00:00:42=49,054 
38 ITAGianluca BortolamiBELMapei-Clas01:21:13  +  00:00:42=49,054 
39 ESPFederico EchaveBELMapei-Clas01:21:13  +  00:00:42=49,054 
40 BELNico EmondsBELMapei-Clas01:21:13  +  00:00:42=49,054 
41 ESPFernando EscartinBELMapei-Clas01:21:13  +  00:00:42=49,054 
42 ESPArsenio GonzálezBELMapei-Clas01:21:13  +  00:00:42=49,054 
43 SUIJörg MüllerBELMapei-Clas01:21:13  +  00:00:42=49,054 
44 ESPAbraham OlanoBELMapei-Clas01:21:13  +  00:00:42=49,054 
45 ESPJon UnzagaBELMapei-Clas01:21:13  +  00:00:42=49,054 
46 DENBjarne RiisITAGewiss-Ballan01:21:33  +  00:01:02=48,853 
47 URSVladislav BobrikITAGewiss-Ballan01:21:33  +  00:01:02=48,853 
48 ITAGuido BontempiITAGewiss-Ballan01:21:33  +  00:01:02=48,853 
49 ITADario BottaroITAGewiss-Ballan01:21:33  +  00:01:02=48,853 
50 ITABruno CenghialtaITAGewiss-Ballan01:21:33  +  00:01:02=48,853 
51 ITAGiorgio FurlanITAGewiss-Ballan01:21:33  +  00:01:02=48,853 
52 ITANicola MinaliITAGewiss-Ballan01:21:33  +  00:01:02=48,853 
53 URSPiotr UgrumovITAGewiss-Ballan01:21:33  +  00:01:02=48,853 
54 ITAEnrico ZainaITAGewiss-Ballan01:21:33  +  00:01:02=48,853 
55 RUSPavel TonkovITALampre-Panaria01:21:46  +  00:01:15=48,724 
56 ITARoberto ContiITALampre-Panaria01:21:46  +  00:01:15=48,724 
57 ITAGianni FaresinITALampre-Panaria01:21:46  +  00:01:15=48,724 
58 ITAAlessio GallettiITALampre-Panaria01:21:46  +  00:01:15=48,724 
59 ITAMarco LiettiITALampre-Panaria01:21:46  +  00:01:15=48,724 
60 ITAMarco SerpelliniITALampre-Panaria01:21:46  +  00:01:15=48,724 
61 SVKJán SvoradaITALampre-Panaria01:21:46  +  00:01:15=48,724 
62 ITAMarco ZenITALampre-Panaria01:21:46  +  00:01:15=48,724 
63 FRAJean-Philippe DojwaFRAGan01:21:48  +  00:01:17=48,704 
64 ENGChris BoardmanFRAGan01:21:48  +  00:01:17=48,704 
65 FRAChristophe CapelleFRAGan01:21:48  +  00:01:17=48,704 
66 FRAJean-Claude ColottiFRAGan01:21:48  +  00:01:17=48,704 
67 FRAThierry GouvenouFRAGan01:21:48  +  00:01:17=48,704 
68 USAGreg LeMondFRAGan01:21:48  +  00:01:17=48,704 
69 FRAFrancis MoreauFRAGan01:21:48  +  00:01:17=48,704 
70 FRADidier RousFRAGan01:21:48  +  00:01:17=48,704 
71 FRAEddy SeigneurFRAGan01:21:48  +  00:01:17=48,704 
72 SUIGianni BugnoITAPolti-Vaporetto01:21:54  +  00:01:23=48,645 
73 URSDjamolidine AbduzhaparovITAPolti-Vaporetto01:21:54  +  00:01:23=48,645 
74 ITAGiovanni FidanzaITAPolti-Vaporetto01:21:54  +  00:01:23=48,645 
75 ITAGianvito MartinelliITAPolti-Vaporetto01:21:54  +  00:01:23=48,645 
76 URSSerguei OutschakovITAPolti-Vaporetto01:21:54  +  00:01:23=48,645 
77 ITAOscar PelliccioliITAPolti-Vaporetto01:21:54  +  00:01:23=48,645 
78 ITAAndrea PeronITAPolti-Vaporetto01:21:54  +  00:01:23=48,645 
79 ITAMario ScireaITAPolti-Vaporetto01:21:54  +  00:01:23=48,645 
80 URSDimitri ZhdanovITAPolti-Vaporetto01:21:54  +  00:01:23=48,645 
81 URSViatcheslav EkimovBELWordperfect01:22:26  +  00:01:55=48,330 
82 NEDErik DekkerBELWordperfect01:22:26  +  00:01:55=48,330 
83 NORAtle KvĺlsvollBELWordperfect01:22:26  +  00:01:55=48,330 
84 NEDFrans MaassenBELWordperfect01:22:26  +  00:01:55=48,330 
85 NEDLeon van BonBELWordperfect01:22:26  +  00:01:55=48,330 
86 NEDRob MuldersBELWordperfect01:22:26  +  00:01:55=48,330 
87 NEDEdwig Van HooydonckBELWordperfect01:22:26  +  00:01:55=48,330 
88 BELEric Van LanckerBELWordperfect01:22:26  +  00:01:55=48,330 
89 BELMarc WautersBELWordperfect01:22:26  +  00:01:55=48,330 
90 ITAClaudio ChiappucciITACarrera Jeans-Tassoni01:22:27  +  00:01:56=48,320 
91 ITAMarco ArtunghiITACarrera Jeans-Tassoni01:22:27  +  00:01:56=48,320 
92 ITAAlessandro BertoliniITACarrera Jeans-Tassoni01:22:27  +  00:01:56=48,320 
93 ITAMario ChiesaITACarrera Jeans-Tassoni01:22:27  +  00:01:56=48,320 
94 ITAMario MantovanITACarrera Jeans-Tassoni01:22:27  +  00:01:56=48,320 
95 ITAMarco PantaniITACarrera Jeans-Tassoni01:22:27  +  00:01:56=48,320 
96 URSVladimir PoulnikovITACarrera Jeans-Tassoni01:22:27  +  00:01:56=48,320 
97 ITARemo RossiITACarrera Jeans-Tassoni01:22:27  +  00:01:56=48,320 
98 SUIBeat ZbergITACarrera Jeans-Tassoni01:22:27  +  00:01:56=48,320 
99 SUIAlex ZülleESPO.N.C.E.01:22:33  +  00:02:02=48,262 
100 NEDErik BreukinkESPO.N.C.E.01:22:33  +  00:02:02=48,262 
101 ESPHerminio ZabalaESPO.N.C.E.01:22:33  +  00:02:02=48,262 
102 SUILaurent DufauxESPO.N.C.E.01:22:33  +  00:02:02=48,262 
103 ESPAlberto LeanizbarrutiaESPO.N.C.E.01:22:33  +  00:02:02=48,262 
104 COLOliverio RincónESPO.N.C.E.01:22:33  +  00:02:02=48,262 
105 ESPJose-Roberto AguerroESPO.N.C.E.01:22:33  +  00:02:02=48,262 
106 AUSNeil StephensESPO.N.C.E.01:22:33  +  00:02:02=48,262 
107 FRALuc LeblancESPFestina-Andorra01:22:56  +  00:02:25=48,039 
108 FRAJean-Claude BagotESPFestina-Andorra01:22:56  +  00:02:25=48,039 
109 FRAPascal HerveESPFestina-Andorra01:22:56  +  00:02:25=48,039 
110 AUSStephen HodgeESPFestina-Andorra01:22:56  +  00:02:25=48,039 
111 FRAPascal LinoESPFestina-Andorra01:22:56  +  00:02:25=48,039 
112 FRARoberto TorresESPFestina-Andorra01:22:56  +  00:02:25=48,039 
113 NEDJean-Paul van PoppelESPFestina-Andorra01:22:56  +  00:02:25=48,039 
114 BELMichel VermoteESPFestina-Andorra01:22:56  +  00:02:25=48,039 
115 MARRichard VirenqueESPFestina-Andorra01:22:56  +  00:02:25=48,039 
116 DDROlaf LudwigDEUTelecom01:22:57  +  00:02:26=48,029 
117 GERRolf AldagDEUTelecom01:22:57  +  00:02:26=48,029 
118 DDRGerd AudehmDEUTelecom01:22:57  +  00:02:26=48,029 
119 GERUdo BöltsDEUTelecom01:22:57  +  00:02:26=48,029 
120 GERChristian HennDEUTelecom01:22:57  +  00:02:26=48,029 
121 DDRJens HeppnerDEUTelecom01:22:57  +  00:02:26=48,029 
122 DDRMario KummerDEUTelecom01:22:57  +  00:02:26=48,029 
123 DDRUwe RaabDEUTelecom01:22:57  +  00:02:26=48,029 
124 DDRErik ZabelDEUTelecom01:22:57  +  00:02:26=48,029 
125 NEDSteven RooksNLDTVM-Bison01:23:26  +  00:02:55=47,751 
126 BELJohan CapiotNLDTVM-Bison01:23:26  +  00:02:55=47,751 
127 NORDag Otto LauritzenNLDTVM-Bison01:23:26  +  00:02:55=47,751 
128 DENBo HamburgerNLDTVM-Bison01:23:26  +  00:02:55=47,751 
129 NEDRob HarmelingNLDTVM-Bison01:23:26  +  00:02:55=47,751 
130 DENPeter Meinert NielsenNLDTVM-Bison01:23:26  +  00:02:55=47,751 
131 DENJesper SkibbyNLDTVM-Bison01:23:26  +  00:02:55=47,751 
132 NEDGert-Jan TheunisseNLDTVM-Bison01:23:26  +  00:02:55=47,751 
133 NEDBart VoskampNLDTVM-Bison01:23:26  +  00:02:55=47,751 
134 ITAMassimo GhirottoITAZG Mobili-Selle Italia01:23:50  +  00:03:19=47,523 
135 ITAFabio CasartelliITAZG Mobili-Selle Italia01:23:50  +  00:03:19=47,523 
136 ITAStefano ColagčITAZG Mobili-Selle Italia01:23:50  +  00:03:19=47,523 
137 ITAFabiano FontanelliITAZG Mobili-Selle Italia01:23:50  +  00:03:19=47,523 
138 ITAGiancarlo PeriniITAZG Mobili-Selle Italia01:23:50  +  00:03:19=47,523 
139 ITADavide PeronaITAZG Mobili-Selle Italia01:23:50  +  00:03:19=47,523 
140 BELHendrik RedantITAZG Mobili-Selle Italia01:23:50  +  00:03:19=47,523 
141 COLNelson RodriguezITAZG Mobili-Selle Italia01:23:50  +  00:03:19=47,523 
142 ITAMauro-Antonio SantaromitaITAZG Mobili-Selle Italia01:23:50  +  00:03:19=47,523 
143 URSAndrei TchmilBELLotto-Veta-Caloi01:23:55  +  00:03:24=47,476 
144 BELMario De ClercqBELLotto-Veta-Caloi01:23:55  +  00:03:24=47,476 
145 BELPeter De ClercqBELLotto-Veta-Caloi01:23:55  +  00:03:24=47,476 
146 BELPeter FarazijnBELLotto-Veta-Caloi01:23:55  +  00:03:24=47,476 
147 BELHerman FrisonBELLotto-Veta-Caloi01:23:55  +  00:03:24=47,476 
148 BRAWanderley MagalhaesBELLotto-Veta-Caloi01:23:55  +  00:03:24=47,476 
149 BELLuc RoosenBELLotto-Veta-Caloi01:23:55  +  00:03:24=47,476 
150 BELJim Van De LaerBELLotto-Veta-Caloi01:23:55  +  00:03:24=47,476 
151 BELRudy VerdonckBELLotto-Veta-Caloi01:23:55  +  00:03:24=47,476 
152 FRACharly MottetFRANovemail-Histor-Laser Computer01:24:02  +  00:03:31=47,410 
153 NEDGerrit De VriesFRANovemail-Histor-Laser Computer01:24:02  +  00:03:31=47,410 
154 NEDPatrick JonkerFRANovemail-Histor-Laser Computer01:24:02  +  00:03:31=47,410 
155 FRAPhilippe LouviotFRANovemail-Histor-Laser Computer01:24:02  +  00:03:31=47,410 
156 BELGuy NulensFRANovemail-Histor-Laser Computer01:24:02  +  00:03:31=47,410 
157 FRARonan PensecFRANovemail-Histor-Laser Computer01:24:02  +  00:03:31=47,410 
158 BELMarc SergeantFRANovemail-Histor-Laser Computer01:24:02  +  00:03:31=47,410 
159 ITAFranco ChioccioliITAMercatone Uno-Medeghini01:25:12  +  00:04:41=46,761 
160 ITAAdriano BaffiITAMercatone Uno-Medeghini01:25:12  +  00:04:41=46,761 
161 ITARosario FinaITAMercatone Uno-Medeghini01:25:12  +  00:04:41=46,761 
162 ITAPaolo LanfranchiITAMercatone Uno-Medeghini01:25:12  +  00:04:41=46,761 
163 ITASilvio MartinelloITAMercatone Uno-Medeghini01:25:12  +  00:04:41=46,761 
164 ITAGiuseppe PetitoITAMercatone Uno-Medeghini01:25:12  +  00:04:41=46,761 
165 ITARoberto PetitoITAMercatone Uno-Medeghini01:25:12  +  00:04:41=46,761 
166 ITAEros PoliITAMercatone Uno-Medeghini01:25:12  +  00:04:41=46,761 
167 NEDJohn TalenITAMercatone Uno-Medeghini01:25:12  +  00:04:41=46,761 
168 ESPLaudelino CubinoESPKelme-Avianca01:25:15  +  00:04:44=46,733 
169 COLHernán BuenahoraESPKelme-Avianca01:25:15  +  00:04:44=46,733 
170 ESPFrancisco CabelloESPKelme-Avianca01:25:15  +  00:04:44=46,733 
171 COLJulio-César CadenaESPKelme-Avianca01:25:15  +  00:04:44=46,733 
172 COLAngel OchoaESPKelme-Avianca01:25:15  +  00:04:44=46,733 
173 ESPÁngel EdoESPKelme-Avianca01:25:15  +  00:04:44=46,733 
174 ESPIgnacio GarciaESPKelme-Avianca01:25:15  +  00:04:44=46,733 
175 COLFederico FernandezESPKelme-Avianca01:25:15  +  00:04:44=46,733 
176 POLCesary ZamanaESPKelme-Avianca01:25:15  +  00:04:44=46,733 
177 FRAÉric CaritouxFRAChazal-MBK-Konig01:25:25  +  00:04:54=46,642 
178 MEXMiguel ArroyoFRAChazal-MBK-Konig01:25:25  +  00:04:54=46,642 
179 FRAJean-Pierre BourgeotFRAChazal-MBK-Konig01:25:25  +  00:04:54=46,642 
180 FRAPascal ChanteurFRAChazal-MBK-Konig01:25:25  +  00:04:54=46,642 
181 FRAGérard GuazziniFRAChazal-MBK-Konig01:25:25  +  00:04:54=46,642 
182 URSArturas KasputisFRAChazal-MBK-Konig01:25:25  +  00:04:54=46,642 
183 URSJaan KirsipuuFRAChazal-MBK-Konig01:25:25  +  00:04:54=46,642 
184 FRAChristophe ManinFRAChazal-MBK-Konig01:25:25  +  00:04:54=46,642 
185 NEDMarco VermeyFRAChazal-MBK-Konig01:25:25  +  00:04:54=46,642 

Withdrawls: 1
 
Rider
Team
Reason
162  FRABruno CornilletFRANovemail-Histor-Laser ComputerDid not finish

Todays birthdays.

1877  Antoine Perrichon
1878  Auguste Berthault
1911  Théo Herckenrath
1924  Carlo Lafranchi
1931  Armand Di Caro
1937  Jean-Claude Lebaube
1951  Giovanni Battaglin
1961  Pascal Jules
1962  Jean-Claude Leclercq
1976  Janek Tombak
1978  Francisco Pérez
1983  Dries Devenyns




Visits: